createdAt,value
2022-12-31T00:02:19.795Z,72.43
2022-12-31T00:04:48.920Z,67.85
2022-12-31T00:07:16.534Z,78.60
2022-12-31T00:09:44.297Z,84.18
2022-12-31T00:12:12.315Z,76.32
2022-12-31T00:14:40.443Z,81.32
2022-12-31T00:17:08.507Z,77.85
2022-12-31T00:19:36.551Z,79.72
2022-12-31T00:22:05.588Z,88.82
2022-12-31T00:24:33.733Z,75.35
2022-12-31T00:27:01.663Z,73.78
2022-12-31T00:29:29.278Z,76.18
2022-12-31T00:31:56.992Z,98.57
2022-12-31T00:34:25.079Z,87.45
2022-12-31T00:36:53.311Z,104.03
2022-12-31T00:39:22.725Z,78.88
2022-12-31T00:41:50.512Z,68.65
2022-12-31T00:44:18.359Z,83.20
2022-12-31T00:46:46.075Z,89.28
2022-12-31T00:49:13.781Z,94.68
2022-12-31T00:51:41.563Z,75.35
2022-12-31T00:54:09.332Z,65.88
2022-12-31T00:56:39.295Z,71.80
2022-12-31T00:59:06.968Z,63.58
2022-12-31T01:01:36.863Z,70.22
2022-12-31T01:04:07.501Z,71.68
2022-12-31T01:06:36.664Z,72.13
2022-12-31T01:09:05.005Z,80.20
2022-12-31T01:11:33.824Z,72.88
2022-12-31T01:14:06.829Z,79.38
2022-12-31T01:16:37.351Z,89.53
2022-12-31T01:19:09.293Z,70.82
2022-12-31T01:21:38.599Z,94.47
2022-12-31T01:24:07.333Z,69.05
2022-12-31T01:26:35.827Z,65.15
2022-12-31T01:29:05.645Z,65.70
2022-12-31T01:31:34.072Z,69.60
2022-12-31T01:34:03.101Z,66.35
2022-12-31T01:36:32.684Z,64.85
2022-12-31T01:39:01.718Z,72.40
2022-12-31T01:41:31.247Z,73.05
2022-12-31T01:44:00.747Z,80.40
2022-12-31T01:46:36.805Z,60.58
2022-12-31T01:49:09.488Z,63.60
2022-12-31T01:51:40.810Z,63.63
2022-12-31T01:54:10.792Z,61.75
2022-12-31T01:56:41.885Z,78.43
2022-12-31T01:59:11.147Z,89.47
2022-12-31T02:01:40.241Z,63.88
2022-12-31T02:04:12.130Z,64.25
2022-12-31T02:06:45.884Z,66.35
2022-12-31T02:09:13.653Z,60.35
2022-12-31T02:11:41.705Z,67.93
2022-12-31T02:14:15.579Z,60.83
2022-12-31T02:16:53.872Z,66.75
2022-12-31T02:19:48.235Z,66.72
2022-12-31T02:22:27.985Z,64.63
2022-12-31T02:25:16.743Z,62.08
2022-12-31T02:27:55.879Z,72.70
2022-12-31T02:30:26.468Z,66.05
2022-12-31T02:33:04.369Z,68.25
2022-12-31T02:35:37.492Z,60.20
2022-12-31T02:38:11.121Z,66.40
2022-12-31T02:40:39.767Z,58.05
2022-12-31T02:43:07.438Z,66.53
2022-12-31T02:45:39.415Z,65.10
2022-12-31T02:48:33.578Z,68.35
2022-12-31T02:51:16.091Z,61.85
2022-12-31T02:54:07.556Z,65.47
2022-12-31T02:56:41.608Z,66.82
2022-12-31T02:59:15.904Z,63.85
2022-12-31T03:01:49.607Z,63.85
2022-12-31T03:04:18.292Z,113.90
2022-12-31T03:06:46.875Z,153.48
2022-12-31T03:09:16.544Z,201.60
2022-12-31T03:11:44.449Z,129.52
2022-12-31T03:14:12.270Z,86.43
2022-12-31T03:16:40.079Z,86.30
2022-12-31T03:19:09.261Z,82.40
2022-12-31T03:21:39.166Z,82.40
2022-12-31T03:24:07.107Z,67.05
2022-12-31T03:26:35.003Z,72.85
2022-12-31T03:29:02.666Z,70.32
2022-12-31T03:31:30.512Z,66.95
2022-12-31T03:33:58.297Z,67.60
2022-12-31T03:36:27.487Z,72.78
2022-12-31T03:38:55.174Z,70.38
2022-12-31T03:41:24.505Z,62.30
2022-12-31T03:43:52.280Z,72.80
2022-12-31T03:46:20.176Z,77.53
2022-12-31T03:48:50.136Z,104.53
2022-12-31T03:51:17.872Z,70.03
2022-12-31T03:53:46.839Z,67.78
2022-12-31T03:56:14.714Z,60.92
2022-12-31T03:58:42.431Z,62.70
2022-12-31T04:01:10.086Z,64.97
2022-12-31T04:03:37.945Z,60.53
2022-12-31T04:06:05.930Z,59.75
2022-12-31T04:08:33.576Z,63.90
2022-12-31T04:11:02.881Z,62.97
2022-12-31T04:13:30.700Z,62.75
2022-12-31T04:15:58.255Z,62.97
2022-12-31T04:18:25.973Z,78.50
2022-12-31T04:20:53.706Z,65.95
2022-12-31T04:23:21.328Z,61.42
2022-12-31T04:25:49.198Z,52.90
2022-12-31T04:28:18.285Z,58.38
2022-12-31T04:30:45.972Z,69.82
2022-12-31T04:33:13.783Z,80.32
2022-12-31T04:35:41.473Z,100.55
2022-12-31T04:38:09.157Z,136.98
2022-12-31T04:40:36.902Z,101.30
2022-12-31T04:43:04.703Z,97.57
2022-12-31T04:45:33.895Z,67.55
2022-12-31T04:48:01.616Z,67.25
2022-12-31T04:50:29.467Z,67.70
2022-12-31T04:52:57.449Z,73.95
2022-12-31T04:55:28.201Z,79.60
2022-12-31T04:57:55.997Z,70.28
2022-12-31T05:00:23.725Z,59.70
2022-12-31T05:02:56.534Z,71.45
2022-12-31T05:05:24.380Z,71.80
2022-12-31T05:07:52.112Z,61.83
2022-12-31T05:10:20.002Z,65.78
2022-12-31T05:12:48.003Z,62.88
2022-12-31T05:15:15.810Z,62.45
2022-12-31T05:17:43.732Z,73.82
2022-12-31T05:20:12.960Z,73.72
2022-12-31T05:22:40.515Z,76.75
2022-12-31T05:25:09.261Z,73.28
2022-12-31T05:27:37.858Z,94.60
2022-12-31T05:30:06.946Z,71.75
2022-12-31T05:32:35.410Z,67.18
2022-12-31T05:35:03.552Z,87.43
2022-12-31T05:37:32.704Z,86.50
2022-12-31T05:40:00.887Z,163.23
2022-12-31T05:42:28.908Z,182.63
2022-12-31T05:44:56.564Z,163.82
2022-12-31T05:47:24.925Z,142.10
2022-12-31T05:49:52.712Z,125.95
2022-12-31T05:52:20.787Z,109.93
2022-12-31T05:54:50.039Z,93.10
2022-12-31T05:57:18.035Z,82.32
2022-12-31T05:59:46.548Z,85.57
2022-12-31T06:02:14.316Z,130.90
2022-12-31T06:04:42.035Z,100.13
2022-12-31T06:07:09.586Z,88.60
2022-12-31T06:09:37.296Z,96.25
2022-12-31T06:12:07.493Z,96.13
2022-12-31T06:14:37.627Z,138.00
2022-12-31T06:17:08.943Z,179.23
2022-12-31T06:19:37.659Z,151.85
2022-12-31T06:22:06.038Z,134.68
2022-12-31T06:24:35.073Z,179.25
2022-12-31T06:27:02.943Z,115.65
2022-12-31T06:29:32.568Z,103.95
2022-12-31T06:32:00.418Z,111.38
2022-12-31T06:34:28.287Z,102.97
2022-12-31T06:36:55.857Z,97.97
2022-12-31T06:39:24.639Z,94.80
2022-12-31T06:41:52.287Z,103.32
2022-12-31T06:44:19.864Z,95.65
2022-12-31T06:49:20.371Z,106.45
2022-12-31T06:51:48.039Z,101.35
2022-12-31T06:54:15.762Z,105.35
2022-12-31T06:56:44.067Z,141.15
2022-12-31T06:59:23.508Z,185.88
2022-12-31T07:02:16.568Z,164.02
2022-12-31T07:05:07.569Z,147.82
2022-12-31T07:07:45.268Z,166.90
2022-12-31T07:10:24.108Z,145.18
2022-12-31T07:13:11.382Z,118.20
2022-12-31T07:16:07.826Z,154.55
2022-12-31T07:18:45.351Z,163.73
2022-12-31T07:21:19.044Z,199.38
2022-12-31T07:23:47.195Z,172.93
2022-12-31T07:26:22.050Z,163.85
2022-12-31T07:29:00.790Z,152.73
2022-12-31T07:31:38.136Z,147.88
2022-12-31T07:34:19.250Z,144.25
2022-12-31T07:37:03.412Z,139.38
2022-12-31T07:39:42.133Z,141.07
2022-12-31T07:42:16.655Z,147.02
2022-12-31T07:45:04.661Z,135.43
2022-12-31T07:47:33.300Z,153.98
2022-12-31T07:50:03.237Z,153.07
2022-12-31T07:52:31.796Z,141.18
2022-12-31T07:54:59.737Z,115.75
2022-12-31T07:57:34.542Z,127.32
2022-12-31T08:00:08.066Z,141.40
2022-12-31T08:02:57.111Z,129.65
2022-12-31T08:05:33.995Z,137.10
2022-12-31T08:08:13.319Z,124.60
2022-12-31T08:10:52.355Z,118.57
2022-12-31T08:13:21.064Z,122.47
2022-12-31T08:15:49.290Z,112.35
2022-12-31T08:18:17.383Z,112.53
2022-12-31T08:20:57.970Z,166.80
2022-12-31T08:23:32.120Z,180.60
2022-12-31T08:26:11.857Z,155.25
2022-12-31T08:28:56.316Z,147.02
2022-12-31T08:31:31.679Z,171.57
2022-12-31T08:34:08.453Z,124.88
2022-12-31T08:36:48.344Z,124.15
2022-12-31T08:39:28.285Z,103.65
2022-12-31T08:41:58.709Z,90.90
2022-12-31T08:44:33.409Z,82.88
2022-12-31T08:47:09.573Z,75.80
2022-12-31T08:49:37.974Z,91.97
2022-12-31T08:52:15.501Z,86.82
2022-12-31T08:54:44.085Z,89.82
2022-12-31T08:57:26.273Z,84.53
2022-12-31T09:00:02.329Z,104.07
2022-12-31T09:02:48.828Z,95.00
2022-12-31T09:05:22.906Z,96.60
2022-12-31T09:08:04.142Z,79.50
2022-12-31T09:13:14.852Z,75.63
2022-12-31T09:15:47.159Z,73.22
2022-12-31T09:18:15.211Z,69.63
2022-12-31T09:20:44.641Z,72.03
2022-12-31T09:23:14.704Z,74.35
2022-12-31T09:25:51.885Z,66.03
2022-12-31T09:28:37.568Z,66.10
2022-12-31T09:31:11.474Z,70.38
2022-12-31T09:33:47.301Z,67.53
2022-12-31T09:36:21.524Z,63.65
2022-12-31T09:38:59.801Z,53.00
2022-12-31T09:41:45.637Z,55.78
2022-12-31T09:44:51.577Z,64.90
2022-12-31T09:47:51.320Z,56.80
2022-12-31T09:50:34.828Z,48.63
2022-12-31T09:53:18.927Z,47.92
2022-12-31T09:55:53.049Z,52.20
2022-12-31T09:58:42.069Z,52.97
2022-12-31T10:01:23.830Z,51.42
2022-12-31T10:06:49.022Z,47.92
2022-12-31T10:09:28.372Z,53.22
2022-12-31T10:12:16.658Z,52.13
2022-12-31T10:15:04.934Z,49.50
2022-12-31T10:17:49.184Z,49.45
2022-12-31T10:20:30.480Z,40.92
2022-12-31T10:26:09.015Z,41.22
2022-12-31T10:28:49.051Z,41.90
2022-12-31T10:31:24.333Z,41.67
2022-12-31T10:34:01.308Z,34.97
2022-12-31T10:36:43.556Z,40.20
2022-12-31T10:39:24.605Z,44.25
2022-12-31T10:42:33.440Z,42.35
2022-12-31T10:45:39.834Z,46.88
2022-12-31T10:48:52.536Z,44.55
2022-12-31T10:52:13.068Z,46.70
2022-12-31T10:55:15.945Z,43.40
2022-12-31T10:58:04.371Z,46.40
2022-12-31T11:00:39.718Z,54.92
2022-12-31T11:03:52.465Z,47.05
2022-12-31T18:25:20.311Z,124.47
2022-12-31T18:27:48.883Z,107.15
2022-12-31T18:30:17.406Z,109.60
2022-12-31T18:32:46.250Z,120.28
2022-12-31T18:35:33.263Z,123.32
2022-12-31T18:38:04.225Z,139.90
2022-12-31T18:40:33.639Z,161.60
2022-12-31T18:43:04.919Z,140.38
2022-12-31T18:45:35.455Z,115.15
2022-12-31T18:48:03.120Z,108.47
2022-12-31T18:50:31.271Z,101.25
2022-12-31T18:52:59.507Z,119.15
2022-12-31T18:55:37.714Z,98.38
2022-12-31T18:58:05.953Z,104.18
2022-12-31T19:00:34.441Z,98.43
2022-12-31T19:03:03.296Z,106.20
2022-12-31T19:05:33.772Z,101.72
2022-12-31T19:08:01.347Z,95.80
2022-12-31T19:10:34.022Z,118.72
2022-12-31T19:13:01.906Z,97.90
2022-12-31T19:15:31.805Z,93.53
2022-12-31T19:18:00.477Z,90.80
2022-12-31T19:20:29.748Z,84.63
2022-12-31T19:22:57.895Z,100.25
2022-12-31T19:25:28.578Z,99.93
2022-12-31T19:27:57.909Z,106.32
2022-12-31T19:30:28.346Z,130.82
2022-12-31T19:32:57.559Z,124.07
2022-12-31T19:35:27.074Z,113.75
2022-12-31T19:37:55.771Z,117.07
2022-12-31T19:40:25.543Z,116.20
2022-12-31T19:42:54.410Z,117.07
2022-12-31T19:45:26.612Z,119.55
2022-12-31T19:47:56.043Z,106.10
2022-12-31T19:50:25.364Z,105.97
2022-12-31T19:52:55.118Z,98.78
2022-12-31T19:55:24.444Z,106.32
2022-12-31T19:57:52.550Z,100.65
2022-12-31T20:00:21.592Z,100.38
2022-12-31T20:02:51.084Z,89.97
2022-12-31T20:05:18.906Z,87.72
2022-12-31T20:07:46.688Z,89.10
2022-12-31T20:10:14.644Z,84.70
2022-12-31T20:12:44.620Z,85.55
2022-12-31T20:15:12.631Z,85.45
2022-12-31T20:17:40.500Z,81.25
2022-12-31T20:20:10.431Z,82.95
2022-12-31T20:22:38.178Z,83.28
2022-12-31T20:25:06.978Z,87.70
2022-12-31T20:27:35.070Z,92.43
2022-12-31T20:30:02.910Z,84.38
2022-12-31T20:32:31.055Z,90.82
2022-12-31T20:34:58.610Z,81.38
2022-12-31T20:37:28.171Z,88.93
2022-12-31T20:39:55.912Z,87.57
2022-12-31T20:42:23.485Z,115.80
2022-12-31T20:44:51.359Z,117.43
2022-12-31T20:47:19.338Z,100.55
2022-12-31T20:50:12.923Z,75.93
2022-12-31T20:52:37.890Z,70.93
2022-12-31T20:55:08.879Z,80.53
2022-12-31T20:57:36.734Z,78.38
2022-12-31T21:00:05.595Z,78.03
2022-12-31T21:02:42.115Z,86.47
2022-12-31T21:05:11.220Z,82.68
2022-12-31T21:07:40.809Z,84.47
2022-12-31T21:10:09.132Z,83.80
2022-12-31T21:12:37.237Z,81.90
2022-12-31T21:15:05.802Z,82.40
2022-12-31T21:17:33.816Z,79.60
2022-12-31T21:20:01.866Z,81.50
2022-12-31T21:22:29.951Z,73.68
2022-12-31T21:24:59.364Z,74.03
2022-12-31T21:27:27.845Z,80.80
2022-12-31T21:30:17.568Z,77.43
2022-12-31T21:32:44.387Z,79.50
2022-12-31T21:38:01.522Z,79.47
2022-12-31T21:40:31.389Z,78.68
2022-12-31T21:43:00.184Z,81.93
2022-12-31T21:45:28.059Z,81.82
2022-12-31T21:47:58.827Z,86.13
2022-12-31T21:50:29.947Z,79.28
2022-12-31T21:52:57.698Z,83.72
2022-12-31T21:55:25.521Z,83.50
2022-12-31T22:00:43.496Z,80.50
2022-12-31T22:03:12.629Z,84.07
2022-12-31T22:05:46.823Z,80.55
2022-12-31T22:08:14.755Z,86.35
2022-12-31T22:10:50.314Z,83.53
2022-12-31T22:13:22.358Z,76.57
2022-12-31T22:15:58.710Z,85.20
2022-12-31T22:18:30.581Z,81.90
2022-12-31T22:21:02.420Z,81.07
2022-12-31T22:23:31.186Z,81.00
2022-12-31T22:25:58.819Z,80.00
2022-12-31T22:28:37.965Z,72.75
2022-12-31T22:31:07.997Z,74.57
2022-12-31T22:33:36.189Z,87.57
2022-12-31T22:36:06.970Z,83.65
2022-12-31T22:38:35.186Z,78.18
2022-12-31T22:41:05.108Z,79.25
2022-12-31T22:43:36.971Z,87.63
2022-12-31T22:46:10.025Z,74.13
2022-12-31T22:48:38.090Z,68.53
2022-12-31T22:51:06.703Z,73.15
2022-12-31T22:53:38.400Z,77.28
2022-12-31T22:56:06.736Z,76.88
2022-12-31T22:58:36.926Z,73.90
2022-12-31T23:01:05.849Z,87.60
2022-12-31T23:03:34.217Z,107.22
2022-12-31T23:06:01.793Z,82.47
2022-12-31T23:08:30.435Z,67.70
2022-12-31T23:10:58.909Z,72.13
2022-12-31T23:13:27.976Z,70.15
2022-12-31T23:15:57.605Z,69.60
2022-12-31T23:18:25.631Z,76.32
2022-12-31T23:20:53.215Z,69.95
2022-12-31T23:23:21.147Z,65.88
2022-12-31T23:25:50.716Z,71.13
2022-12-31T23:28:20.809Z,69.38
2022-12-31T23:30:50.343Z,65.38
2022-12-31T23:33:21.339Z,69.90
2022-12-31T23:35:49.141Z,70.68
2022-12-31T23:38:18.160Z,70.55
2022-12-31T23:40:46.258Z,66.32
2022-12-31T23:43:20.572Z,68.07
2022-12-31T23:45:49.131Z,60.80
2022-12-31T23:48:19.613Z,67.70
2022-12-31T23:50:53.102Z,74.95
2022-12-31T23:53:22.092Z,75.82
2022-12-31T23:55:50.505Z,72.90
2022-12-31T23:58:18.162Z,71.28
